createdAt,value
2022-08-03T00:01:30.190Z,4.15
2022-08-03T00:04:34.186Z,4.30
2022-08-03T00:07:36.000Z,4.40
2022-08-03T00:10:38.136Z,4.40
2022-08-03T00:13:39.781Z,4.55
2022-08-03T00:16:41.226Z,4.38
2022-08-03T00:19:42.689Z,4.55
2022-08-03T00:22:44.128Z,4.72
2022-08-03T00:25:45.586Z,4.70
2022-08-03T00:28:47.444Z,4.68
2022-08-03T00:35:05.689Z,4.68
2022-08-03T00:38:10.358Z,4.93
2022-08-03T00:41:11.841Z,5.20
2022-08-03T00:44:17.151Z,5.35
2022-08-03T00:47:18.616Z,5.55
2022-08-03T00:50:25.473Z,5.28
2022-08-03T00:53:27.643Z,5.47
2022-08-03T00:56:29.140Z,4.88
2022-08-03T00:59:30.810Z,4.90
2022-08-03T01:02:32.408Z,4.75
2022-08-03T01:05:45.231Z,5.07
2022-08-03T01:08:53.617Z,5.10
2022-08-03T01:12:03.910Z,5.03
2022-08-03T01:15:29.299Z,5.30
2022-08-03T01:18:49.413Z,4.80
2022-08-03T01:22:18.012Z,4.70
2022-08-03T01:25:36.371Z,4.90
2022-08-03T01:28:45.207Z,4.82
2022-08-03T01:33:02.783Z,4.55
2022-08-03T01:35:35.466Z,4.65
2022-08-03T01:38:54.050Z,4.82
2022-08-03T01:42:02.253Z,4.63
2022-08-03T01:45:05.380Z,4.63
2022-08-03T01:48:08.007Z,4.80
2022-08-03T01:51:10.987Z,4.35
2022-08-03T01:54:13.526Z,4.60
2022-08-03T01:57:16.452Z,4.97
2022-08-03T02:00:19.201Z,4.55
2022-08-03T02:03:24.314Z,4.38
2022-08-03T02:07:01.911Z,4.60
2022-08-03T02:09:52.383Z,5.03
2022-08-03T02:12:54.672Z,4.63
2022-08-03T02:15:58.047Z,4.57
2022-08-03T02:19:01.963Z,4.60
2022-08-03T02:22:05.379Z,4.28
2022-08-03T02:25:09.056Z,4.55
2022-08-03T02:28:13.479Z,4.40
2022-08-03T02:31:21.932Z,4.65
2022-08-03T02:34:29.332Z,4.68
2022-08-03T02:37:37.562Z,4.78
2022-08-03T02:40:46.208Z,4.63
2022-08-03T02:44:05.668Z,4.25
2022-08-03T02:47:11.692Z,4.70
2022-08-03T02:50:16.657Z,4.60
2022-08-03T02:53:19.798Z,5.10
2022-08-03T02:56:23.664Z,4.68
2022-08-03T02:59:26.985Z,4.60
2022-08-03T03:02:29.655Z,4.40
2022-08-03T03:05:52.835Z,4.60
2022-08-03T03:08:59.304Z,4.65
2022-08-03T03:12:02.997Z,4.53
2022-08-03T03:15:08.166Z,4.82
2022-08-03T03:18:10.696Z,4.80
2022-08-03T03:21:14.292Z,4.38
2022-08-03T03:24:16.631Z,4.35
2022-08-03T03:27:18.639Z,4.57
2022-08-03T03:30:20.167Z,4.63
2022-08-03T03:33:22.859Z,4.55
2022-08-03T03:36:24.339Z,5.20
2022-08-03T03:39:25.850Z,5.22
2022-08-03T03:42:27.364Z,5.07
2022-08-03T03:45:30.932Z,5.80
2022-08-03T03:48:32.743Z,5.68
2022-08-03T03:54:45.488Z,5.27
2022-08-03T03:57:47.006Z,5.95
2022-08-03T04:00:48.687Z,5.25
2022-08-03T04:03:50.234Z,5.50
2022-08-03T04:07:10.528Z,5.35
2022-08-03T04:10:44.860Z,5.40
2022-08-03T04:14:04.805Z,5.38
2022-08-03T04:17:09.473Z,5.28
2022-08-03T04:20:13.329Z,5.25
2022-08-03T04:23:16.917Z,5.28
2022-08-03T04:26:21.616Z,5.25
2022-08-03T04:29:25.964Z,5.43
2022-08-03T04:32:29.706Z,5.15
2022-08-03T04:36:01.376Z,4.82
2022-08-03T04:39:04.345Z,5.20
2022-08-03T04:42:09.253Z,5.05
2022-08-03T04:45:12.992Z,4.90
2022-08-03T04:48:15.508Z,5.28
2022-08-03T04:51:17.259Z,5.07
2022-08-03T04:57:22.739Z,4.87
2022-08-03T05:00:25.917Z,5.50
2022-08-03T05:03:27.388Z,4.97
2022-08-03T05:06:28.892Z,4.68
2022-08-03T05:09:52.868Z,4.93
2022-08-03T05:12:52.240Z,4.80
2022-08-03T05:18:55.220Z,5.13
2022-08-03T05:21:56.658Z,5.57
2022-08-03T05:24:58.430Z,5.40
2022-08-03T05:27:59.951Z,5.45
2022-08-03T05:31:02.071Z,5.18
2022-08-03T05:34:03.519Z,5.30
2022-08-03T05:37:05.087Z,5.78
2022-08-03T05:40:07.180Z,5.43
2022-08-03T05:43:08.782Z,5.43
2022-08-03T05:46:12.820Z,5.93
2022-08-03T05:49:14.591Z,5.40
2022-08-03T05:52:16.178Z,5.75
2022-08-03T05:55:19.378Z,5.28
2022-08-03T05:58:20.824Z,5.68
2022-08-03T06:01:22.520Z,6.07
2022-08-03T06:04:24.053Z,5.70
2022-08-03T06:07:25.546Z,5.80
2022-08-03T06:10:36.259Z,5.60
2022-08-03T06:13:40.032Z,5.40
2022-08-03T06:16:41.521Z,5.85
2022-08-03T06:19:43.134Z,5.57
2022-08-03T06:22:51.049Z,5.80
2022-08-03T06:26:02.490Z,5.72
2022-08-03T06:29:04.094Z,5.82
2022-08-03T06:32:05.960Z,5.90
2022-08-03T06:38:09.593Z,6.22
2022-08-03T06:41:11.039Z,5.75
2022-08-03T06:44:13.388Z,6.28
2022-08-03T06:47:14.859Z,5.88
2022-08-03T06:50:21.717Z,6.13
2022-08-03T06:53:25.981Z,5.85
2022-08-03T06:56:27.593Z,5.53
2022-08-03T07:00:07.495Z,5.78
2022-08-03T07:02:53.642Z,5.97
2022-08-03T07:05:59.415Z,6.13
2022-08-03T07:09:00.959Z,5.80
2022-08-03T07:12:04.432Z,6.20
2022-08-03T07:15:06.825Z,5.97
2022-08-03T07:18:08.348Z,5.65
2022-08-03T07:21:10.999Z,6.35
2022-08-03T07:24:12.466Z,5.68
2022-08-03T07:27:16.497Z,5.95
2022-08-03T07:30:18.088Z,6.30
2022-08-03T07:33:19.998Z,6.80
2022-08-03T07:36:21.522Z,6.60
2022-08-03T07:39:23.096Z,6.25
2022-08-03T07:42:24.869Z,5.35
2022-08-03T07:48:28.475Z,5.82
2022-08-03T07:51:30.011Z,5.40
2022-08-03T07:54:32.016Z,5.03
2022-08-03T07:57:34.956Z,5.70
2022-08-03T08:00:36.878Z,5.07
2022-08-03T08:03:41.156Z,5.50
2022-08-03T08:06:54.713Z,4.93
2022-08-03T08:09:57.209Z,5.32
2022-08-03T08:12:58.920Z,5.35
2022-08-03T08:19:02.372Z,5.45
2022-08-03T08:22:03.893Z,5.75
2022-08-03T08:25:07.493Z,5.40
2022-08-03T08:28:31.871Z,5.15
2022-08-03T08:31:30.564Z,5.03
2022-08-03T08:34:32.375Z,5.00
2022-08-03T08:37:34.677Z,4.50
2022-08-03T08:40:36.225Z,4.60
2022-08-03T08:46:39.730Z,5.13
2022-08-03T08:49:53.420Z,4.82
2022-08-03T08:53:04.695Z,4.55
2022-08-03T08:56:10.366Z,4.45
2022-08-03T08:59:12.214Z,4.78
2022-08-03T09:02:13.809Z,4.90
2022-08-03T09:08:18.333Z,4.70
2022-08-03T09:11:51.644Z,4.65
2022-08-03T09:15:07.600Z,4.45
2022-08-03T09:18:09.411Z,4.47
2022-08-03T09:21:32.077Z,4.50
2022-08-03T09:24:41.167Z,4.90
2022-08-03T09:27:44.554Z,4.63
2022-08-03T09:30:58.518Z,4.55
2022-08-03T09:34:07.816Z,4.20
2022-08-03T09:37:15.394Z,4.68
2022-08-03T09:40:35.250Z,4.60
2022-08-03T09:43:46.733Z,4.40
2022-08-03T09:50:04.409Z,4.32
2022-08-03T09:53:06.040Z,4.50
2022-08-03T09:56:33.467Z,4.15
2022-08-03T09:59:30.697Z,4.30
2022-08-03T10:02:32.440Z,3.85
2022-08-03T10:05:33.969Z,4.00
2022-08-03T10:08:35.478Z,4.18
2022-08-03T10:11:41.678Z,3.80
2022-08-03T10:14:45.667Z,3.83
2022-08-03T10:17:47.353Z,3.72
2022-08-03T10:20:53.514Z,3.45
2022-08-03T10:23:56.318Z,3.55
2022-08-03T10:27:04.421Z,3.65
2022-08-03T10:30:11.277Z,3.55
2022-08-03T10:33:51.013Z,3.20
2022-08-03T10:36:49.031Z,3.60
2022-08-03T10:39:54.019Z,3.30
2022-08-03T10:42:59.298Z,3.10
2022-08-03T10:46:03.219Z,3.10
2022-08-03T10:49:06.378Z,3.08
2022-08-03T10:52:31.682Z,3.30
2022-08-03T10:55:49.907Z,3.13
2022-08-03T10:58:57.871Z,3.20
2022-08-03T11:02:00.613Z,3.17
2022-08-03T11:05:27.036Z,2.97
2022-08-03T11:08:29.973Z,2.75
2022-08-03T11:11:31.609Z,2.58
2022-08-03T11:15:06.361Z,2.92
2022-08-03T11:18:13.160Z,3.40
2022-08-03T11:21:14.682Z,3.22
2022-08-03T11:24:41.024Z,2.78
2022-08-03T11:27:42.667Z,2.55
2022-08-03T11:30:44.164Z,3.15
2022-08-03T11:34:04.465Z,2.72
2022-08-03T11:37:23.089Z,2.80
2022-08-03T11:40:40.421Z,2.60
2022-08-03T11:43:45.275Z,2.45
2022-08-03T11:46:46.931Z,2.58
2022-08-03T11:49:49.983Z,2.30
2022-08-03T11:52:51.601Z,2.30
2022-08-03T11:55:53.941Z,2.70
2022-08-03T11:59:19.339Z,2.58
2022-08-03T12:02:19.027Z,2.72
2022-08-03T12:05:20.658Z,2.53
2022-08-03T12:08:28.330Z,2.40
2022-08-03T12:11:30.715Z,2.25
2022-08-03T12:14:48.539Z,2.30
2022-08-03T12:17:57.589Z,2.20
2022-08-03T12:21:10.887Z,2.50
2022-08-03T12:24:12.494Z,2.60
2022-08-03T12:27:24.551Z,2.40
2022-08-03T12:30:26.262Z,2.45
2022-08-03T12:33:28.407Z,2.45
2022-08-03T12:36:32.169Z,2.40
2022-08-03T12:39:33.690Z,2.13
2022-08-03T12:42:37.559Z,2.17
2022-08-03T12:45:39.468Z,2.20
2022-08-03T12:49:03.579Z,2.58
2022-08-03T12:52:07.601Z,2.30
2022-08-03T12:55:20.658Z,2.10
2022-08-03T12:58:36.105Z,2.40
2022-08-03T13:01:37.799Z,2.30
2022-08-03T13:04:43.684Z,2.42
2022-08-03T13:07:46.328Z,2.60
2022-08-03T13:10:48.653Z,2.40
2022-08-03T13:13:51.787Z,2.40
2022-08-03T13:16:53.339Z,2.17
2022-08-03T13:19:54.892Z,2.40
2022-08-03T13:23:00.599Z,2.10
2022-08-03T13:26:02.856Z,2.15
2022-08-03T13:29:04.351Z,2.30
2022-08-03T13:32:06.907Z,2.10
2022-08-03T13:35:09.597Z,2.20
2022-08-03T13:38:11.277Z,2.00
2022-08-03T13:41:15.520Z,1.88
2022-08-03T13:44:29.211Z,2.00
2022-08-03T13:47:31.440Z,2.00
2022-08-03T13:50:33.249Z,2.20
2022-08-03T13:53:34.717Z,2.20
2022-08-03T13:56:36.160Z,2.45
2022-08-03T13:59:38.005Z,2.00
2022-08-03T14:02:39.524Z,2.22
2022-08-03T14:05:42.490Z,2.22
2022-08-03T14:08:44.738Z,2.03
2022-08-03T14:12:07.495Z,1.98
2022-08-03T14:15:10.054Z,2.30
2022-08-03T14:18:15.869Z,2.10
2022-08-03T14:21:29.907Z,1.98
2022-08-03T14:24:31.538Z,1.90
2022-08-03T14:27:32.978Z,2.20
2022-08-03T14:30:35.008Z,2.00
2022-08-03T14:33:36.482Z,2.00
2022-08-03T14:36:38.047Z,2.30
2022-08-03T14:43:02.349Z,1.98
2022-08-03T14:46:03.887Z,1.90
2022-08-03T14:50:34.482Z,1.80
2022-08-03T14:52:26.881Z,1.90
2022-08-03T14:55:28.808Z,1.85
2022-08-03T14:58:40.480Z,1.80
2022-08-03T15:02:04.298Z,1.90
2022-08-03T15:05:04.086Z,1.98
2022-08-03T15:08:09.227Z,2.03
2022-08-03T15:11:11.107Z,1.95
2022-08-03T15:14:13.555Z,1.80
2022-08-03T15:17:16.424Z,1.90
2022-08-03T15:20:28.745Z,2.10
2022-08-03T15:23:38.037Z,2.27
2022-08-03T15:26:41.721Z,1.92
2022-08-03T15:30:07.595Z,2.25
2022-08-03T15:33:05.411Z,2.00
2022-08-03T15:36:07.364Z,2.20
2022-08-03T15:39:08.849Z,2.00
2022-08-03T15:42:10.298Z,2.38
2022-08-03T15:45:11.812Z,2.40
2022-08-03T15:48:14.525Z,2.50
2022-08-03T15:51:16.078Z,2.28
2022-08-03T15:54:17.570Z,2.40
2022-08-03T15:57:19.426Z,2.70
2022-08-03T16:00:21.199Z,2.17
2022-08-03T16:03:35.446Z,2.10
2022-08-03T16:06:37.166Z,2.33
2022-08-03T16:09:42.388Z,2.67
2022-08-03T16:12:45.596Z,2.47
2022-08-03T16:15:47.683Z,2.17
2022-08-03T16:18:49.315Z,2.30
2022-08-03T16:21:50.831Z,2.35
2022-08-03T16:24:54.049Z,1.90
2022-08-03T16:27:56.898Z,2.20
2022-08-03T16:31:09.124Z,2.13
2022-08-03T16:34:10.617Z,2.30
2022-08-03T16:37:37.182Z,2.13
2022-08-03T16:40:35.038Z,2.53
2022-08-03T16:43:37.722Z,2.30
2022-08-03T16:46:42.757Z,2.53
2022-08-03T16:49:54.467Z,2.40
2022-08-03T16:52:57.819Z,2.38
2022-08-03T16:56:00.011Z,2.20
2022-08-03T16:59:01.641Z,2.20
2022-08-03T17:02:09.698Z,2.17
2022-08-03T17:05:12.345Z,2.42
2022-08-03T17:08:14.025Z,2.30
2022-08-03T17:11:15.639Z,2.10
2022-08-03T17:14:22.077Z,2.33
2022-08-03T17:17:47.627Z,2.30
2022-08-03T17:20:58.154Z,2.28
2022-08-03T17:24:19.907Z,2.20
2022-08-03T17:28:51.235Z,2.30
2022-08-03T17:31:23.448Z,2.30
2022-08-03T17:34:30.522Z,2.20
2022-08-03T17:37:57.894Z,2.20
2022-08-03T17:40:56.352Z,2.38
2022-08-03T17:44:14.887Z,2.40
2022-08-03T17:47:19.230Z,2.30
2022-08-03T17:50:27.996Z,2.40
2022-08-03T17:53:37.692Z,2.40
2022-08-03T17:57:22.638Z,2.30
2022-08-03T18:00:45.282Z,2.40
2022-08-03T18:03:57.782Z,2.63
2022-08-03T18:07:11.662Z,2.50
2022-08-03T18:10:23.324Z,2.30
2022-08-03T18:16:58.506Z,2.50
2022-08-03T18:20:09.929Z,2.42
2022-08-03T18:23:25.105Z,2.53
2022-08-03T18:26:38.645Z,2.60
2022-08-03T18:29:41.266Z,2.33
2022-08-03T18:32:43.749Z,2.53
2022-08-03T18:36:03.418Z,2.75
2022-08-03T18:39:06.220Z,2.78
2022-08-03T18:42:07.899Z,2.78
2022-08-03T18:45:55.819Z,2.65
2022-08-03T18:48:55.189Z,2.80
2022-08-03T18:52:04.802Z,2.90
2022-08-03T18:56:01.344Z,2.47
2022-08-03T18:59:10.418Z,2.70
2022-08-03T19:02:36.758Z,3.22
2022-08-03T19:05:57.749Z,3.20
2022-08-03T19:09:09.493Z,2.55
2022-08-03T19:12:27.320Z,3.10
2022-08-03T19:15:51.209Z,3.00
2022-08-03T19:18:54.996Z,2.70
2022-08-03T19:21:57.918Z,3.10
2022-08-03T19:25:04.104Z,3.33
2022-08-03T19:28:07.509Z,3.28
2022-08-03T19:31:11.529Z,2.65
2022-08-03T19:34:20.087Z,2.80
2022-08-03T19:37:27.494Z,3.13
2022-08-03T19:40:42.154Z,2.70
2022-08-03T19:43:53.701Z,2.83
2022-08-03T19:47:11.617Z,3.20
2022-08-03T19:50:20.441Z,2.60
2022-08-03T19:53:23.865Z,2.60
2022-08-03T19:56:46.197Z,2.70
2022-08-03T19:59:50.778Z,2.72
2022-08-03T20:02:52.592Z,2.70
2022-08-03T20:05:55.093Z,2.60
2022-08-03T20:08:57.554Z,2.25
2022-08-03T20:12:00.428Z,2.88
2022-08-03T20:15:03.283Z,2.78
2022-08-03T20:18:04.746Z,3.03
2022-08-03T20:21:15.298Z,2.50
2022-08-03T20:24:23.827Z,2.80
2022-08-03T20:27:30.314Z,2.47
2022-08-03T20:30:32.063Z,2.92
2022-08-03T20:33:46.562Z,2.80
2022-08-03T20:39:57.054Z,2.50
2022-08-03T20:42:59.724Z,2.90
2022-08-03T20:46:30.905Z,2.80
2022-08-03T20:52:31.285Z,2.60
2022-08-03T20:55:48.176Z,2.75
2022-08-03T20:58:55.104Z,2.75
2022-08-03T21:01:56.637Z,3.08
2022-08-03T21:05:08.524Z,2.75
2022-08-03T21:08:12.147Z,2.63
2022-08-03T21:11:18.976Z,3.25
2022-08-03T21:14:25.148Z,2.65
2022-08-03T21:17:40.639Z,3.10
2022-08-03T21:20:44.314Z,2.80
2022-08-03T21:23:50.087Z,2.90
2022-08-03T21:26:55.009Z,2.55
2022-08-03T21:30:00.846Z,2.90
2022-08-03T21:33:06.498Z,2.92
2022-08-03T21:36:08.562Z,2.50
2022-08-03T21:39:10.652Z,3.00
2022-08-03T21:42:13.253Z,3.13
2022-08-03T21:45:17.329Z,2.90
2022-08-03T21:48:19.912Z,2.90
2022-08-03T21:51:25.263Z,3.30
2022-08-03T21:54:36.910Z,3.30
2022-08-03T21:57:40.863Z,3.28
2022-08-03T22:00:43.280Z,3.28
2022-08-03T22:03:53.079Z,3.90
2022-08-03T22:06:55.735Z,3.20
2022-08-03T22:09:59.063Z,3.50
2022-08-03T22:13:00.614Z,3.10
2022-08-03T22:16:02.388Z,3.13
2022-08-03T22:19:04.008Z,3.45
2022-08-03T22:22:09.230Z,3.28
2022-08-03T22:25:13.816Z,3.50
2022-08-03T22:28:15.777Z,3.30
2022-08-03T22:31:57.762Z,3.03
2022-08-03T22:34:42.872Z,3.30
2022-08-03T22:37:46.902Z,3.60
2022-08-03T22:40:51.057Z,3.30
2022-08-03T22:43:53.120Z,3.40
2022-08-03T22:46:55.951Z,3.20
2022-08-03T22:50:32.044Z,3.20
2022-08-03T22:53:22.002Z,3.53
2022-08-03T22:56:23.834Z,3.33
2022-08-03T22:59:40.195Z,3.40
2022-08-03T23:02:46.863Z,3.40
2022-08-03T23:06:01.070Z,3.22
2022-08-03T23:09:06.852Z,3.20
2022-08-03T23:12:08.677Z,3.13
2022-08-03T23:15:12.947Z,3.17
2022-08-03T23:18:15.433Z,3.50
2022-08-03T23:21:18.053Z,3.60
2022-08-03T23:24:39.828Z,3.35
2022-08-03T23:27:43.508Z,3.40
2022-08-03T23:30:45.625Z,3.70
2022-08-03T23:34:16.528Z,3.38
2022-08-03T23:37:20.136Z,3.25
2022-08-03T23:40:30.838Z,3.63
2022-08-03T23:43:45.094Z,3.63
2022-08-03T23:46:54.584Z,3.60
2022-08-03T23:49:56.044Z,3.20
2022-08-03T23:56:22.140Z,3.40
2022-08-03T23:59:30.501Z,3.58
